Terminal Aerodrome Forecast
Issued by NWS

Home | Current Version | Previous Version | Graphics & Text | Print | Product List | Glossary On
Versions: 1 2 3 4 5 6 7 8 9 10 11 12 13 14 15
000
FTUS43 KICT 131400 AAA
TAFSLN
TAF AMD
KSLN 131402Z 1314/1412 VRB04KT 2SM BR SCT002
      TEMPO 1314/1315 1/2SM FG OVC002
     FM131600 15011KT P6SM FEW030 SCT070=

USA.gov is the U.S. government's official web portal to all federal, state and local government web resources and services.